Flight Track Log - Related Links

Times and Time Zones

All times are in EDT time to prevent confusion due to time zone crossing. See the AAL1459 flight status page for this flight to view local times or setup timezone preferences in your user account.

Time Position Orientation Groundspeed Altitude Reporting Facility
EDT Latitude Longitude Course Direction KTS MPH feet Rate Location/Type
Sun 02:22:17 PM 42.3667 -70.9667 304° West 163 188 1,400  Level KA90
Sun 02:23:29 PM 42.3833 -70.8833 75° East 226 260 4,100 2,682 Climbing KA90
Sun 02:24:00 PM 42.5629 -70.8148 340° North  Level FlightAware Approximate
Sun 02:24:29 PM 42.4000 -70.8000 75° East 266 306 7,300  Level KA90
Sun 02:25:00 PM 42.6311 -70.9294 308° West  Level FlightAware Approximate
Sun 02:25:38 PM 42.4925 -70.7817 North 320 368 10,900  Level Boston Center
Sun 02:26:00 PM 42.6854 -71.0580 300° West  Level FlightAware Approximate
Sun 02:26:38 PM 42.5458 -70.8592 313° West 269 310 12,600  Level Boston Center
Sun 02:27:00 PM 42.7423 -71.1845 304° West  Level FlightAware Approximate
Sun 02:27:38 PM 42.6097 -70.9731 307° West 325 374 15,900  Level Boston Center
Sun 02:28:38 PM 42.6672 -71.0736 308° West 362 417 18,000 1,600 Climbing Boston Center
Sun 02:29:38 PM 42.7397 -71.1992 308° West 375 432 19,100 1,750 Climbing Boston Center
Sun 02:30:38 PM 42.7908 -71.3253 299° West 387 445 21,500 2,300 Climbing Boston Center
Sun 02:31:38 PM 42.8069 -71.4778 278° West 383 441 23,700 1,900 Climbing Boston Center
Sun 02:32:38 PM 42.8164 -71.6306 275° West 396 456 25,300 1,600 Climbing Boston Center
Sun 02:33:38 PM 42.8319 -71.7944 277° West 423 487 26,900 1,600 Climbing Boston Center
Sun 02:34:38 PM 42.8475 -71.9614 277° West 442 509 28,500 1,600 Climbing Boston Center
Sun 02:35:38 PM 42.8628 -72.1314 277° West 451 519 30,100 1,450 Climbing Boston Center
Sun 02:36:38 PM 42.8839 -72.3042 280° West 462 532 31,400 1,400 Climbing Boston Center
Sun 02:37:38 PM 42.8986 -72.4797 277° West 467 537 32,900 1,500 Climbing Boston Center
Sun 02:38:38 PM 42.9067 -72.6469 274° West 467 537 34,400 1,350 Climbing Boston Center
Sun 02:39:38 PM 42.9228 -72.8256 277° West 461 531 35,600 1,200 Climbing Boston Center
Sun 02:40:38 PM 42.9328 -72.9647 276° West 461 531 36,800 1,045 Climbing Boston Center
Sun 02:41:50 PM 42.9547 -73.1550 279° West 461 531 37,900 545 Climbing Boston Center
Sun 02:42:50 PM 42.9656 -73.3736 274° West 461 531 38,000 50 Climbing Boston Center
Sun 02:43:50 PM 42.9786 -73.5411 276° West 456 525 38,000 -45 Level Boston Center
Sun 02:45:02 PM 42.9972 -73.7431 277° West 456 525 37,900  Descending Boston Center
Sun 02:46:02 PM 43.0097 -73.9136 276° West 451 519 38,000 50 Climbing Boston Center
Sun 02:47:02 PM 43.0222 -74.0789 276° West 451 519 38,000 -45 Level Boston Center
Sun 02:48:14 PM 43.0358 -74.2781 275° West 445 512 37,900  Descending Boston Center
Sun 02:49:14 PM 43.0497 -74.4431 277° West 445 512 38,000 50 Climbing Boston Center
Sun 02:50:14 PM 43.0611 -74.6111 275° West 445 512 38,000  Level Boston Center
Sun 02:51:14 PM 43.0703 -74.7792 274° West 445 512 38,000  Level Boston Center
Sun 02:52:14 PM 43.0814 -74.9475 275° West 445 512 38,000  Level Boston Center
Sun 02:53:14 PM 43.0922 -75.1128 275° West 445 512 38,000  Level Boston Center
Sun 02:54:14 PM 43.1050 -75.2811 276° West 445 512 38,000  Level Boston Center
Sun 02:55:14 PM 43.1150 -75.4494 275° West 445 512 38,000  Level Boston Center
Sun 02:56:14 PM 43.1253 -75.6150 275° West 445 512 38,000  Level Boston Center
Sun 02:57:14 PM 43.1336 -75.7606 275° West 445 512 38,000  Level Boston Center
Sun 02:59:20 PM 43.1333 -76.0833 270° West 440 506 38,000  Level Toronto Center
Sun 03:00:20 PM 43.1500 -76.2500 278° West 440 506 38,000  Level Toronto Center
Sun 03:01:24 PM 43.1594 -76.4475 274° West 437 503 38,000  Level Cleveland Center
Sun 03:02:24 PM 43.1592 -76.6156 270° West 437 503 38,000  Level Cleveland Center
Sun 03:03:24 PM 43.1592 -76.7978 270° West 442 509 38,000  Level Cleveland Center
Sun 03:04:24 PM 43.1581 -76.9600 270° West 442 509 38,000  Level Cleveland Center
Sun 03:05:24 PM 43.1567 -77.1253 269° West 442 509 38,000  Level Cleveland Center
Sun 03:06:24 PM 43.1556 -77.2933 270° West 442 509 38,000  Level Cleveland Center
Sun 03:07:24 PM 43.1558 -77.4583 270° West 442 509 38,000  Level Cleveland Center
Sun 03:08:24 PM 43.1519 -77.6264 268° West 442 509 38,000  Level Cleveland Center
Sun 03:09:24 PM 43.1497 -77.7917 269° West 442 509 38,000  Level Cleveland Center
Sun 03:10:24 PM 43.1494 -77.9567 270° West 442 509 38,000  Level Cleveland Center
Sun 03:11:24 PM 43.1469 -78.1219 269° West 442 509 38,000  Level Cleveland Center
Sun 03:12:24 PM 43.1439 -78.2869 269° West 442 509 38,000  Level Cleveland Center
Sun 03:13:24 PM 43.1408 -78.4522 269° West 442 509 38,000  Level Cleveland Center
Sun 03:15:24 PM 43.1319 -78.7797 268° West 442 509 38,000  Level Cleveland Center
Sun 03:16:24 PM 43.1278 -78.9306 268° West 447 514 38,000  Level Cleveland Center
Sun 03:17:24 PM 43.1217 -79.0928 267° West 447 514 38,000  Level Cleveland Center
Sun 03:18:24 PM 43.1175 -79.2578 268° West 441 507 38,000  Level Cleveland Center
Sun 03:19:20 PM 43.1000 -79.4000 260° West 430 495 38,000  Level Toronto Center
Sun 03:20:20 PM 43.1000 -79.5667 270° West 430 495 38,000  Level Toronto Center
Sun 03:21:20 PM 43.0833 -79.7167 261° West 430 495 38,000  Level Toronto Center
Sun 03:22:20 PM 43.0833 -79.8833 270° West 430 495 38,000  Level Toronto Center
Sun 03:23:20 PM 43.0833 -80.0500 270° West 430 495 38,000  Level Toronto Center
Sun 03:24:20 PM 43.0667 -80.2333 263° West 430 495 38,000  Level Toronto Center
Sun 03:25:20 PM 43.0667 -80.3833 270° West 430 495 38,000  Level Toronto Center
Sun 03:26:20 PM 43.0500 -80.5500 262° West 430 495 38,000  Level Toronto Center
Sun 03:27:20 PM 43.0500 -80.7000 270° West 430 495 38,000  Level Toronto Center
Sun 03:28:20 PM 43.0333 -80.8833 263° West 430 495 38,000  Level Toronto Center
Sun 03:29:20 PM 43.0167 -81.0500 262° West 430 495 38,000  Level Toronto Center
Sun 03:30:20 PM 43.0167 -81.2000 270° West 430 495 38,000  Level Toronto Center
Sun 03:31:20 PM 43.0167 -81.3667 270° West 430 495 38,000  Level Toronto Center
Sun 03:32:20 PM 43.0167 -81.5333 270° West 440 506 38,000  Level Toronto Center
Sun 03:33:20 PM 43.0167 -81.7000 270° West 440 506 38,000  Level Toronto Center
Sun 03:34:20 PM 43.0167 -81.8667 270° West 440 506 38,000  Level Toronto Center
Sun 03:35:20 PM 43.0000 -82.0333 262° West 440 506 38,000  Level Toronto Center
Sun 03:36:20 PM 43.0000 -82.1833 270° West 440 506 38,000  Level Toronto Center
Sun 03:37:20 PM 43.0000 -82.3667 270° West 440 506 38,000  Level Toronto Center
Sun 03:38:20 PM 43.0000 -82.5333 270° West 440 506 38,000  Level Toronto Center
Sun 03:39:12 PM 43.0039 -82.6839 272° West 442 509 38,000  Level Cleveland Center
Sun 03:40:12 PM 42.9964 -82.8483 266° West 442 509 38,000  Level Cleveland Center
Sun 03:41:12 PM 42.9908 -83.0186 268° West 442 509 38,000  Level Cleveland Center
Sun 03:42:12 PM 42.9872 -83.1831 268° West 442 509 38,000  Level Cleveland Center
Sun 03:43:12 PM 42.9794 -83.3472 266° West 442 509 38,000  Level Cleveland Center
Sun 03:44:12 PM 42.9731 -83.5172 267° West 442 509 38,000 -400 Level Cleveland Center
Sun 03:45:12 PM 42.9689 -83.6817 268° West 447 514 37,200 -850 Descending Cleveland Center
Sun 03:46:12 PM 42.9556 -83.8542 264° West 447 514 36,300 -950 Descending Cleveland Center
Sun 03:47:12 PM 42.9406 -84.0178 263° West 447 514 35,300 -950 Descending Cleveland Center
Sun 03:48:12 PM 42.9231 -84.1814 262° West 447 514 34,400 -994 Descending Cleveland Center
Sun 03:50:07 PM 42.8953 -84.4769 263° West 436 502 32,400 -809 Descending Chicago Center
Sun 03:51:10 PM 42.8778 -84.6397 262° West 435 501 32,000 -194 Descending Chicago Center
Sun 03:52:11 PM 42.8611 -84.8039 262° West 437 503 32,000  Level Chicago Center
Sun 03:53:13 PM 42.8411 -84.9994 262° West 435 501 32,000 -48 Level Chicago Center
Sun 03:54:15 PM 42.8233 -85.1628 262° West 436 502 31,900 -823 Descending Chicago Center
Sun 03:55:17 PM 42.8053 -85.3253 261° West 435 501 30,300 -1,694 Descending Chicago Center
Sun 03:56:19 PM 42.7875 -85.4878 262° West 434 499 28,400 -1,790 Descending Chicago Center
Sun 03:57:21 PM 42.7594 -85.6444 256° West 426 490 26,600 -1,742 Descending Chicago Center
Sun 03:58:23 PM 42.7322 -85.7992 257° West 420 483 24,800 -1,742 Descending Chicago Center
Sun 03:59:25 PM 42.7047 -85.9497 256° West 412 474 23,000 -1,548 Descending Chicago Center
Sun 04:01:29 PM 42.6458 -86.2736 256° West 398 458 20,000 -1,348 Descending Chicago Center
Sun 04:02:32 PM 42.6178 -86.4172 255° West 394 453 18,800 -1,200 Descending Chicago Center
Sun 04:03:34 PM 42.5897 -86.5681 256° West 408 470 17,500 -1,355 Descending Chicago Center
Sun 04:04:36 PM 42.5617 -86.7156 256° West 407 468 16,000 -1,452 Descending Chicago Center
Sun 04:05:38 PM 42.5256 -86.8525 250° West 391 450 14,500 -1,452 Descending Chicago Center
Sun 04:06:40 PM 42.4889 -86.9889 250° West 385 443 13,000 -1,597 Descending Chicago Center
Sun 04:07:42 PM 42.4467 -87.1425 250° West 365 420 11,200 -1,452 Descending Chicago Center
Sun 04:08:44 PM 42.4122 -87.2689 250° West 358 412 10,000 -459 Descending Chicago Center
Sun 04:10:19 PM 42.3500 -87.4667 247° West 353 406 10,000  Level Chicago TRACON
Sun 04:10:48 PM 42.3442 -87.5131 260° West 353 406 10,000  Level Chicago Center
Sun 04:11:50 PM 42.2611 -87.6158 223° Southwest 345 397 10,000  Level Chicago Center
Sun 04:12:52 PM 42.1850 -87.6964 218° Southwest 346 398 10,000 -290 Level Chicago Center
Sun 04:13:54 PM 42.1239 -87.7744 223° Southwest 309 356 9,400 -960 Descending Chicago Center
Sun 04:14:57 PM 42.0956 -87.8750 249° West 291 335 8,000 -1,575 Descending Chicago Center
Sun 04:15:14 PM 42.0833 -87.9167 248° West 294 338 7,300 -779 Descending Chicago TRACON
Sun 04:16:14 PM 42.0500 -88.0167 246° West 288 331 7,000 -158 Descending Chicago TRACON
Sun 04:17:08 PM 42.0500 -88.1167 270° West 286 329 7,000  Level Chicago TRACON
Sun 04:18:03 PM 42.0475 -88.1944 268° West 268 308 7,000 -718 Level Chicago Center
Sun 04:19:05 PM 42.0222 -88.2375 232° Southwest 203 234 5,600 -1,065 Descending Chicago Center
Sun 04:20:07 PM 41.9839 -88.2089 151° Southeast 204 235 4,800 -774 Descending Chicago Center

Login

Don't have an account? Register now (free) for customized features, flight alerts, and more!